Felix-Klein-Gymnasium, Gttingen, 150m NN
Donnes mto: Actuelle Dienstag, 17.10.2017 05:15
Date Horaire Temp. E. Hum. E. P.atmo. Pluie Vent Direction Direction Ensoleilleme P. de rose Temp au vent Rafales
17.10.2017 05:15 11,2 C 92 % 1019,7 hPa 0,0 mm 4,3 km/h (1 Bft) NO 325 0 min 9,9 C 11,2 C 8,0 km/h (2 Bft)
17.10.2017 05:00 11,4 C 93 % 1019,8 hPa 0,0 mm 4,6 km/h (1 Bft) NO 310 0 min 10,3 C 11,4 C 8,0 km/h (2 Bft)
17.10.2017 04:45 12,0 C 91 % 1020,0 hPa 0,0 mm 0,6 km/h (0 Bft) O 266 0 min 10,6 C 12,0 C 4,8 km/h (1 Bft)
17.10.2017 04:30 12,4 C 92 % 1020,1 hPa 0,0 mm 0,0 km/h (0 Bft) SE 143 0 min 11,1 C 12,4 C 0,0 km/h (0 Bft)
17.10.2017 04:15 12,4 C 92 % 1020,0 hPa 0,0 mm 0,4 km/h (0 Bft) SE 143 0 min 11,1 C 12,4 C 3,2 km/h (1 Bft)
17.10.2017 04:00 12,3 C 92 % 1020,1 hPa 0,0 mm 0,8 km/h (0 Bft) E-SE 108 0 min 11,0 C 12,3 C 4,8 km/h (1 Bft)
17.10.2017 03:45 12,3 C 92 % 1020,0 hPa 0,0 mm 0,0 km/h (0 Bft) E-NE 68 0 min 11,0 C 12,3 C 0,0 km/h (0 Bft)
17.10.2017 03:30 12,3 C 92 % 1020,2 hPa 0,0 mm 2,7 km/h (1 Bft) E-NE 68 0 min 11,0 C 12,3 C 4,8 km/h (1 Bft)
17.10.2017 03:15 12,4 C 91 % 1020,1 hPa 0,0 mm 0,0 km/h (0 Bft) N 6 0 min 11,0 C 12,4 C 0,0 km/h (0 Bft)
17.10.2017 03:00 12,6 C 91 % 1020,2 hPa 0,0 mm 0,0 km/h (0 Bft) N 5 0 min 11,2 C 12,6 C 0,0 km/h (0 Bft)
17.10.2017 02:45 12,7 C 90 % 1020,4 hPa 0,0 mm 0,5 km/h (0 Bft) N 6 0 min 11,1 C 12,7 C 3,2 km/h (1 Bft)
17.10.2017 02:30 12,9 C 89 % 1020,4 hPa 0,0 mm 0,0 km/h (0 Bft) N 4 0 min 11,1 C 12,9 C 0,0 km/h (0 Bft)
17.10.2017 02:15 13,3 C 89 % 1020,4 hPa 0,0 mm 0,0 km/h (0 Bft) N 4 0 min 11,5 C 13,3 C 0,0 km/h (0 Bft)
17.10.2017 02:00 13,4 C 89 % 1020,5 hPa 0,0 mm 0,0 km/h (0 Bft) N 4 0 min 11,6 C 13,4 C 1,6 km/h (1 Bft)
17.10.2017 01:45 13,7 C 89 % 1020,6 hPa 0,0 mm 2,8 km/h (1 Bft) N 4 0 min 11,9 C 13,7 C 6,4 km/h (2 Bft)
17.10.2017 01:30 13,7 C 89 % 1020,6 hPa 0,0 mm 4,9 km/h (1 Bft) N-NE 12 0 min 11,9 C 13,7 C 8,0 km/h (2 Bft)
17.10.2017 01:15 13,8 C 89 % 1020,6 hPa 0,0 mm 2,9 km/h (1 Bft) N 350 0 min 12,0 C 13,8 C 6,4 km/h (2 Bft)
17.10.2017 01:00 13,9 C 88 % 1020,5 hPa 0,0 mm 2,3 km/h (1 Bft) N-NO 333 0 min 11,9 C 13,9 C 8,0 km/h (2 Bft)
17.10.2017 00:45 14,2 C 87 % 1020,6 hPa 0,0 mm 1,6 km/h (1 Bft) N-NO 346 0 min 12,1 C 14,2 C 4,8 km/h (1 Bft)
17.10.2017 00:30 14,3 C 88 % 1020,6 hPa 0,0 mm 1,2 km/h (1 Bft) N-NO 331 0 min 12,3 C 14,3 C 4,8 km/h (1 Bft)
17.10.2017 00:15 14,3 C 87 % 1020,6 hPa 0,0 mm 1,0 km/h (0 Bft) N-NO 335 0 min 12,2 C 14,3 C 4,8 km/h (1 Bft)
17.10.2017 00:00 14,7 C 86 % 1020,7 hPa 0,0 mm 1,6 km/h (1 Bft) NO 325 0 min 12,4 C 14,7 C 4,8 km/h (1 Bft)
16.10.2017 22:45 15,7 C 84 % 1020,9 hPa 0,0 mm 1,3 km/h (1 Bft) N-NO 337 0 min 13,0 C 15,7 C 6,4 km/h (2 Bft)
16.10.2017 22:30 15,8 C 84 % 1021,0 hPa 0,0 mm 1,9 km/h (1 Bft) N-NO 339 0 min 13,1 C 15,8 C 6,4 km/h (2 Bft)
16.10.2017 22:15 16,1 C 83 % 1021,1 hPa 0,0 mm 2,5 km/h (1 Bft) N-NO 342 0 min 13,2 C 16,1 C 6,4 km/h (2 Bft)
16.10.2017 22:00 16,4 C 82 % 1021,0 hPa 0,0 mm 4,3 km/h (1 Bft) N-NO 341 0 min 13,3 C 16,4 C 9,7 km/h (2 Bft)
16.10.2017 21:45 16,4 C 82 % 1021,0 hPa 0,0 mm 2,7 km/h (1 Bft) N-NO 329 0 min 13,3 C 16,4 C 8,0 km/h (2 Bft)
16.10.2017 21:30 16,7 C 82 % 1021,0 hPa 0,0 mm 1,9 km/h (1 Bft) N-NO 345 0 min 13,6 C 16,7 C 8,0 km/h (2 Bft)
16.10.2017 21:15 16,7 C 83 % 1021,0 hPa 0,0 mm 3,3 km/h (1 Bft) NO 325 0 min 13,8 C 16,7 C 8,0 km/h (2 Bft)
16.10.2017 21:00 16,4 C 83 % 1020,9 hPa 0,0 mm 1,9 km/h (1 Bft) NO 325 0 min 13,5 C 16,4 C 8,0 km/h (2 Bft)
16.10.2017 20:45 17,2 C 81 % 1021,0 hPa 0,0 mm 3,7 km/h (1 Bft) N 356 0 min 13,9 C 17,2 C 6,4 km/h (2 Bft)
16.10.2017 20:30 17,7 C 81 % 1020,8 hPa 0,0 mm 3,1 km/h (1 Bft) N 357 0 min 14,4 C 17,7 C 6,4 km/h (2 Bft)
16.10.2017 20:15 17,9 C 80 % 1020,7 hPa 0,0 mm 3,6 km/h (1 Bft) N-NO 332 0 min 14,4 C 17,9 C 8,0 km/h (2 Bft)
16.10.2017 20:00 17,9 C 80 % 1020,7 hPa 0,0 mm 5,4 km/h (1 Bft) NO 315 0 min 14,4 C 17,9 C 9,7 km/h (2 Bft)
16.10.2017 19:45 18,1 C 79 % 1020,7 hPa 0,0 mm 3,0 km/h (1 Bft) NO 315 0 min 14,4 C 18,1 C 8,0 km/h (2 Bft)
16.10.2017 19:30 18,6 C 78 % 1020,6 hPa 0,0 mm 2,4 km/h (1 Bft) N 356 0 min 14,7 C 18,6 C 6,4 km/h (2 Bft)
16.10.2017 19:15 18,9 C 77 % 1020,7 hPa 0,0 mm 3,2 km/h (1 Bft) NO 315 0 min 14,8 C 18,9 C 8,0 km/h (2 Bft)
16.10.2017 19:00 19,0 C 77 % 1020,7 hPa 0,0 mm 3,5 km/h (1 Bft) NO 315 0 min 14,9 C 19,0 C 8,0 km/h (2 Bft)
16.10.2017 18:45 19,3 C 75 % 1020,8 hPa 0,0 mm 4,0 km/h (1 Bft) NO 315 0 min 14,8 C 19,3 C 6,4 km/h (2 Bft)
16.10.2017 18:30 19,7 C 75 % 1020,8 hPa 0,0 mm 6,0 km/h (2 Bft) NO 320 0 min 15,1 C 19,7 C 11,3 km/h (2 Bft)
16.10.2017 18:15 20,1 C 73 % 1020,7 hPa 0,0 mm 5,2 km/h (1 Bft) NO 304 0 min 15,1 C 20,1 C 11,3 km/h (2 Bft)
16.10.2017 18:00 20,7 C 71 % 1020,8 hPa 0,0 mm 5,4 km/h (1 Bft) N-NO 329 0 min 15,2 C 20,7 C 11,3 km/h (2 Bft)
16.10.2017 17:45 21,4 C 68 % 1020,6 hPa 0,0 mm 4,8 km/h (1 Bft) NO 315 0 min 15,2 C 21,4 C 11,3 km/h (2 Bft)
16.10.2017 17:30 22,1 C 66 % 1020,7 hPa 0,0 mm 5,0 km/h (1 Bft) NO 311 0 min 15,4 C 22,1 C 11,3 km/h (2 Bft)
16.10.2017 17:15 22,8 C 64 % 1020,8 hPa 0,0 mm 2,8 km/h (1 Bft) NO 325 0 min 15,6 C 22,8 C 8,0 km/h (2 Bft)
16.10.2017 17:00 23,2 C 60 % 1020,8 hPa 0,0 mm 1,7 km/h (1 Bft) NO 315 0 min 15,0 C 23,2 C 6,4 km/h (2 Bft)
16.10.2017 16:45 23,6 C 58 % 1020,8 hPa 0,0 mm 3,2 km/h (1 Bft) N-NE 13 15 min 14,8 C 23,6 C 12,9 km/h (3 Bft)
16.10.2017 16:30 23,8 C 57 % 1020,8 hPa 0,0 mm 2,3 km/h (1 Bft) NE 41 15 min 14,8 C 23,8 C 9,7 km/h (2 Bft)
16.10.2017 16:15 23,8 C 58 % 1020,9 hPa 0,0 mm 2,6 km/h (1 Bft) N-NE 20 15 min 15,0 C 23,8 C 12,9 km/h (3 Bft)
16.10.2017 16:00 23,6 C 57 % 1020,9 hPa 0,0 mm 2,6 km/h (1 Bft) N-NO 335 15 min 14,6 C 23,6 C 11,3 km/h (2 Bft)
16.10.2017 15:45 23,4 C 58 % 1021,0 hPa 0,0 mm 5,0 km/h (1 Bft) N 9 15 min 14,7 C 23,4 C 11,3 km/h (2 Bft)
16.10.2017 15:30 23,4 C 60 % 1021,0 hPa 0,0 mm 2,4 km/h (1 Bft) NO 315 15 min 15,2 C 23,4 C 8,0 km/h (2 Bft)
16.10.2017 15:15 23,2 C 60 % 1021,1 hPa 0,0 mm 3,8 km/h (1 Bft) N-NO 340 15 min 15,0 C 23,2 C 11,3 km/h (2 Bft)
16.10.2017 15:00 23,0 C 60 % 1021,2 hPa 0,0 mm 4,8 km/h (1 Bft) N-NO 338 15 min 14,8 C 23,0 C 12,9 km/h (3 Bft)
16.10.2017 14:45 23,1 C 60 % 1021,3 hPa 0,0 mm 4,2 km/h (1 Bft) N-NE 24 15 min 14,9 C 23,1 C 12,9 km/h (3 Bft)
16.10.2017 14:30 22,9 C 58 % 1021,4 hPa 0,0 mm 6,6 km/h (2 Bft) E-NE 66 15 min 14,2 C 22,9 C 16,1 km/h (3 Bft)
16.10.2017 14:15 23,4 C 59 % 1021,4 hPa 0,0 mm 1,8 km/h (1 Bft) NE 43 15 min 14,9 C 23,4 C 12,9 km/h (3 Bft)
16.10.2017 14:00 22,8 C 63 % 1021,7 hPa 0,0 mm 0,4 km/h (0 Bft) N 353 15 min 15,4 C 22,8 C 4,8 km/h (1 Bft)
16.10.2017 13:45 21,9 C 66 % 1021,9 hPa 0,0 mm 2,3 km/h (1 Bft) N-NO 346 15 min 15,3 C 21,9 C 8,0 km/h (2 Bft)
16.10.2017 13:30 21,4 C 67 % 1021,6 hPa 0,0 mm 3,5 km/h (1 Bft) O 273 15 min 15,0 C 21,4 C 12,9 km/h (3 Bft)
16.10.2017 13:15 21,0 C 69 % 1021,7 hPa 0,0 mm 4,2 km/h (1 Bft) O-NO 288 15 min 15,1 C 21,0 C 11,3 km/h (2 Bft)
16.10.2017 13:00 20,4 C 70 % 1021,7 hPa 0,0 mm 6,1 km/h (2 Bft) NO 315 15 min 14,7 C 20,4 C 14,5 km/h (3 Bft)
16.10.2017 12:45 19,9 C 72 % 1021,7 hPa 0,0 mm 5,4 km/h (1 Bft) O-NO 283 15 min 14,7 C 19,9 C 14,5 km/h (3 Bft)
16.10.2017 12:30 19,4 C 73 % 1021,8 hPa 0,0 mm 7,9 km/h (2 Bft) N-NO 332 15 min 14,4 C 19,4 C 17,7 km/h (3 Bft)
16.10.2017 12:15 19,0 C 74 % 1021,8 hPa 0,0 mm 7,8 km/h (2 Bft) N-NO 330 15 min 14,3 C 19,0 C 17,7 km/h (3 Bft)
16.10.2017 12:00 18,7 C 76 % 1021,8 hPa 0,0 mm 5,4 km/h (1 Bft) O-NO 298 15 min 14,4 C 18,7 C 14,5 km/h (3 Bft)
16.10.2017 11:45 18,2 C 77 % 1021,8 hPa 0,0 mm 7,5 km/h (2 Bft) NO 315 15 min 14,1 C 18,2 C 16,1 km/h (3 Bft)
16.10.2017 11:30 17,9 C 77 % 1021,8 hPa 0,0 mm 6,5 km/h (2 Bft) NO 315 15 min 13,8 C 17,9 C 17,7 km/h (3 Bft)
16.10.2017 11:15 17,4 C 79 % 1021,8 hPa 0,0 mm 7,1 km/h (2 Bft) O-NO 285 15 min 13,7 C 17,4 C 16,1 km/h (3 Bft)
16.10.2017 11:00 17,2 C 80 % 1021,7 hPa 0,0 mm 5,2 km/h (1 Bft) O-NO 294 15 min 13,7 C 17,2 C 14,5 km/h (3 Bft)
16.10.2017 10:45 16,7 C 83 % 1021,7 hPa 0,0 mm 3,9 km/h (1 Bft) O-NO 302 15 min 13,8 C 16,7 C 11,3 km/h (2 Bft)
16.10.2017 10:30 16,0 C 85 % 1021,6 hPa 0,0 mm 3,7 km/h (1 Bft) O-NO 288 15 min 13,5 C 16,0 C 11,3 km/h (2 Bft)
16.10.2017 10:15 15,3 C 86 % 1021,7 hPa 0,0 mm 4,0 km/h (1 Bft) N-NO 344 15 min 13,0 C 15,3 C 11,3 km/h (2 Bft)
16.10.2017 10:00 14,7 C 87 % 1021,7 hPa 0,0 mm 4,3 km/h (1 Bft) NO 315 15 min 12,6 C 14,7 C 8,0 km/h (2 Bft)
16.10.2017 09:45 14,2 C 88 % 1021,8 hPa 0,0 mm 4,5 km/h (1 Bft) NO 325 15 min 12,2 C 14,2 C 12,9 km/h (3 Bft)
16.10.2017 09:30 13,5 C 88 % 1021,7 hPa 0,0 mm 7,3 km/h (2 Bft) N-NO 330 15 min 11,6 C 13,5 C 12,9 km/h (3 Bft)
16.10.2017 09:15 12,9 C 90 % 1021,6 hPa 0,0 mm 4,2 km/h (1 Bft) O 281 15 min 11,3 C 12,9 C 9,7 km/h (2 Bft)
16.10.2017 09:00 12,4 C 91 % 1021,6 hPa 0,0 mm 4,5 km/h (1 Bft) N 358 0 min 11,0 C 12,4 C 11,3 km/h (2 Bft)
16.10.2017 08:45 12,3 C 90 % 1021,6 hPa 0,0 mm 4,9 km/h (1 Bft) NO 320 0 min 10,7 C 12,3 C 9,7 km/h (2 Bft)
16.10.2017 08:30 12,2 C 91 % 1021,5 hPa 0,0 mm 5,5 km/h (1 Bft) NO 306 0 min 10,8 C 12,2 C 9,7 km/h (2 Bft)
16.10.2017 08:15 12,2 C 91 % 1021,3 hPa 0,0 mm 5,3 km/h (1 Bft) NO 311 0 min 10,8 C 12,2 C 9,7 km/h (2 Bft)
16.10.2017 08:00 12,1 C 91 % 1021,2 hPa 0,0 mm 5,8 km/h (2 Bft) O 262 0 min 10,7 C 12,1 C 11,3 km/h (2 Bft)
16.10.2017 07:45 12,1 C 91 % 1021,1 hPa 0,0 mm 6,4 km/h (2 Bft) O-NO 299 0 min 10,7 C 12,1 C 12,9 km/h (3 Bft)
16.10.2017 07:30 11,8 C 93 % 1021,1 hPa 0,0 mm 7,8 km/h (2 Bft) O-NO 288 0 min 10,7 C 11,8 C 12,9 km/h (3 Bft)
16.10.2017 07:15 11,1 C 94 % 1021,2 hPa 0,0 mm 2,7 km/h (1 Bft) O-NO 293 0 min 10,2 C 11,1 C 6,4 km/h (2 Bft)
16.10.2017 07:00 10,6 C 94 % 1021,1 hPa 0,0 mm 3,2 km/h (1 Bft) N-NO 339 0 min 9,7 C 10,6 C 8,0 km/h (2 Bft)
16.10.2017 06:45 10,4 C 93 % 1020,9 hPa 0,0 mm 4,0 km/h (1 Bft) NO 320 0 min 9,3 C 10,4 C 8,0 km/h (2 Bft)
16.10.2017 06:30 10,6 C 93 % 1021,0 hPa 0,0 mm 3,8 km/h (1 Bft) O-NO 294 0 min 9,5 C 10,6 C 6,4 km/h (2 Bft)
16.10.2017 06:15 10,6 C 93 % 1021,0 hPa 0,0 mm 0,7 km/h (0 Bft) N-NO 348 0 min 9,5 C 10,6 C 4,8 km/h (1 Bft)
16.10.2017 06:00 10,7 C 93 % 1021,0 hPa 0,0 mm 0,1 km/h (0 Bft) N-NO 348 0 min 9,6 C 10,7 C 3,2 km/h (1 Bft)
_ Min-Heure 06:45 16:00 05:15 - 02:00 - - - 06:45 06:45 02:15
Minimum _ 10,4 C 57 % 1019,7 hPa - 0,0 km/h (0 Bft) - - - 9,3 C 10,4 C 0,0 km/h (0 Bft)
_ Max-Heure 16:15 07:00 13:45 06:00 12:30 - - 09:15 17:15 16:15 11:30
Maximum _ 23,8 C 94 % 1021,9 hPa 0,0 mm 7,9 km/h
N-NO (2 Bft)
- - 15 min 15,6 C 23,8 C 17,7 km/h
NO (3 Bft)
Moyenne _ 16,1 C 81 % 1021,0 hPa #0,0 mm 3,1 km/h (1 Bft) NO - #0 min. 12,7 C 16,1 C 8,2 km/h (2 Bft)